Time;durP1;ratioP1;P1;durP2;ratioP2;P2;SDS_P1;SDS_P2;PMS_P1;PMS_P2;Temp;Humidity;BMP_temperature;BMP_pressure;BME280_temperature;BME280_humidity;BME280_pressure;Samples;Min_cycle;Max_cycle;Signal;HPM_P1;HPM_P2
2023/10/01 00:01:34;;;;;;;11.45;8.50;;;17.20;99.60;;;;;;5056242;28;20423;-83
2023/10/01 00:04:04;;;;;;;10.80;8.45;;;17.10;99.60;;;;;;5035215;28;20029;-84
2023/10/01 00:06:30;;;;;;;10.05;7.80;;;17.20;99.60;;;;;;5048375;28;20032;-84
2023/10/01 00:08:57;;;;;;;10.13;7.68;;;17.10;99.60;;;;;;5055052;28;20036;-84
2023/10/01 00:11:24;;;;;;;13.13;7.93;;;17.10;99.60;;;;;;5043845;28;20121;-84
2023/10/01 00:13:50;;;;;;;10.48;7.88;;;17.10;99.50;;;;;;5065480;28;20035;-83
2023/10/01 00:16:16;;;;;;;10.52;7.75;;;17.10;99.50;;;;;;5035564;28;20025;-83
2023/10/01 00:18:41;;;;;;;10.57;8.43;;;17.10;99.50;;;;;;5056299;28;20353;-83
2023/10/01 00:21:07;;;;;;;13.07;8.20;;;17.10;99.40;;;;;;5040874;28;20350;-83
2023/10/01 00:23:33;;;;;;;10.63;7.55;;;17.00;99.40;;;;;;5035099;28;20527;-83
2023/10/01 00:25:59;;;;;;;12.15;8.13;;;17.00;99.30;;;;;;5057533;28;20029;-83
2023/10/01 00:28:25;;;;;;;9.85;8.00;;;17.00;99.30;;;;;;5050828;28;20135;-84
2023/10/01 00:30:53;;;;;;;9.88;8.05;;;16.90;99.30;;;;;;5051503;28;20111;-84
2023/10/01 00:33:18;;;;;;;10.57;7.72;;;16.90;99.30;;;;;;5057607;28;20040;-84
2023/10/01 00:35:44;;;;;;;9.98;7.95;;;16.90;99.30;;;;;;5055223;28;20403;-83
2023/10/01 00:38:10;;;;;;;10.02;7.95;;;16.90;99.30;;;;;;5069689;28;20031;-84
2023/10/01 00:40:36;;;;;;;9.82;7.60;;;16.90;99.30;;;;;;5053950;28;20385;-83
2023/10/01 00:43:06;;;;;;;9.68;7.95;;;16.90;99.30;;;;;;5061211;28;20021;-84
2023/10/01 00:45:32;;;;;;;9.63;7.57;;;16.90;99.40;;;;;;5075144;28;20123;-83
2023/10/01 00:48:13;;;;;;;11.15;7.97;;;16.90;99.40;;;;;;5074520;28;20154;-83
2023/10/01 00:50:41;;;;;;;9.27;7.55;;;16.90;99.40;;;;;;5072518;28;20024;-84
2023/10/01 00:53:08;;;;;;;10.18;7.88;;;16.90;99.40;;;;;;5038451;28;20032;-84
2023/10/01 00:55:34;;;;;;;11.07;7.85;;;16.90;99.30;;;;;;5056235;28;20409;-83
2023/10/01 00:58:00;;;;;;;9.00;7.60;;;16.80;99.30;;;;;;5054490;28;20033;-84
2023/10/01 01:00:26;;;;;;;9.38;7.43;;;16.90;99.40;;;;;;5067183;28;20032;-84
2023/10/01 01:03:05;;;;;;;9.82;7.95;;;16.90;99.40;;;;;;5029698;28;20036;-83
2023/10/01 01:05:34;;;;;;;12.88;7.93;;;16.90;99.40;;;;;;5061734;28;20090;-84
2023/10/01 01:08:07;;;;;;;9.57;7.38;;;16.80;99.30;;;;;;5060744;28;20050;-84
2023/10/01 01:10:40;;;;;;;10.52;8.43;;;16.80;99.60;;;;;;5058399;28;20036;-83
2023/10/01 01:13:06;;;;;;;9.07;7.28;;;16.80;99.20;;;;;;5074507;28;20021;-84
2023/10/01 01:15:34;;;;;;;11.90;8.80;;;16.80;99.20;;;;;;5074098;28;20456;-83
2023/10/01 01:18:07;;;;;;;9.25;7.85;;;16.80;99.10;;;;;;5040107;28;20079;-83
2023/10/01 01:20:36;;;;;;;11.18;7.40;;;16.80;99.10;;;;;;5068644;28;20064;-83
2023/10/01 01:23:06;;;;;;;9.95;8.07;;;16.80;99.10;;;;;;5073480;28;20481;-83
2023/10/01 01:25:33;;;;;;;10.50;7.30;;;16.70;99.10;;;;;;5071733;28;20016;-83
2023/10/01 01:27:59;;;;;;;8.63;7.53;;;16.70;99.10;;;;;;5080859;28;20029;-84
2023/10/01 01:30:29;;;;;;;12.13;8.32;;;16.70;99.10;;;;;;5070752;28;20009;-83
2023/10/01 01:32:57;;;;;;;10.68;7.43;;;16.70;99.10;;;;;;5094119;28;20037;-84
2023/10/01 01:35:29;;;;;;;8.93;7.57;;;16.70;99.10;;;;;;5063341;28;20017;-83
2023/10/01 01:37:58;;;;;;;8.98;7.60;;;16.70;99.10;;;;;;5069345;28;20033;-83
2023/10/01 01:40:27;;;;;;;11.43;7.68;;;16.70;99.00;;;;;;5062940;28;20029;-83
2023/10/01 01:43:03;;;;;;;11.27;7.60;;;16.70;99.00;;;;;;5054459;28;20029;-83
2023/10/01 01:45:33;;;;;;;10.15;7.15;;;16.70;99.00;;;;;;5069403;28;20029;-83
2023/10/01 01:48:01;;;;;;;11.15;7.47;;;16.70;99.00;;;;;;5063871;28;20466;-84
2023/10/01 01:50:27;;;;;;;8.93;7.15;;;16.70;99.00;;;;;;5070430;28;20103;-83
2023/10/01 01:52:56;;;;;;;12.25;7.32;;;16.60;99.00;;;;;;5057587;28;20053;-83
2023/10/01 01:55:25;;;;;;;13.48;8.05;;;16.70;99.00;;;;;;5073955;28;20075;-83
2023/10/01 02:00:31;;;;;;;9.77;7.13;;;16.70;99.00;;;;;;5061262;28;20044;-84
2023/10/01 02:03:02;;;;;;;9.95;7.20;;;16.70;99.00;;;;;;5067310;28;20407;-84
2023/10/01 02:05:29;;;;;;;10.20;7.40;;;16.70;99.10;;;;;;5057654;28;20552;-83
2023/10/01 02:07:55;;;;;;;11.05;7.03;;;16.70;99.10;;;;;;5072801;28;20128;-83
2023/10/01 02:10:21;;;;;;;10.52;6.88;;;16.70;99.00;;;;;;5073275;28;20029;-83
2023/10/01 02:12:50;;;;;;;8.68;7.00;;;16.70;99.10;;;;;;5053053;28;20032;-84
2023/10/01 02:15:18;;;;;;;12.57;7.85;;;16.70;99.10;;;;;;5036917;28;20096;-83
2023/10/01 02:17:43;;;;;;;9.10;6.53;;;16.70;99.10;;;;;;5054152;28;20120;-83
2023/10/01 02:20:20;;;;;;;8.10;6.55;;;16.60;99.10;;;;;;5068290;28;20076;-83
2023/10/01 02:22:47;;;;;;;9.18;7.15;;;16.70;99.10;;;;;;5053170;28;20488;-83
2023/10/01 02:25:12;;;;;;;8.63;6.43;;;16.70;99.00;;;;;;5048104;28;20036;-83
2023/10/01 02:27:48;;;;;;;9.60;6.60;;;16.70;99.10;;;;;;5052941;28;20057;-83
2023/10/01 02:30:16;;;;;;;9.02;6.00;;;16.70;99.10;;;;;;5051543;28;20028;-83
2023/10/01 02:33:15;;;;;;;8.65;6.18;;;16.70;99.10;;;;;;5074651;28;20377;-84
2023/10/01 02:35:40;;;;;;;8.75;5.68;;;16.70;99.10;;;;;;5073226;28;20028;-84
2023/10/01 02:38:07;;;;;;;7.13;5.32;;;16.70;99.10;;;;;;5056632;28;20028;-83
2023/10/01 02:40:37;;;;;;;9.20;5.90;;;16.70;99.10;;;;;;5074059;28;20028;-83
2023/10/01 02:43:13;;;;;;;9.50;5.60;;;16.70;99.10;;;;;;5071705;28;20503;-84
2023/10/01 02:45:41;;;;;;;8.18;5.00;;;16.70;99.20;;;;;;5057142;28;20037;-83
2023/10/01 02:48:16;;;;;;;9.95;6.03;;;16.80;99.20;;;;;;5052493;28;20386;-84
2023/10/01 02:50:54;;;;;;;7.63;5.65;;;16.80;99.10;;;;;;5037654;28;20052;-84
2023/10/01 02:53:21;;;;;;;10.35;4.97;;;16.70;99.10;;;;;;5052921;28;20017;-83
2023/10/01 02:55:48;;;;;;;7.18;4.85;;;16.80;99.00;;;;;;5064587;28;20046;-84
2023/10/01 02:58:27;;;;;;;7.63;4.80;;;16.80;99.00;;;;;;5069140;28;20114;-84
2023/10/01 03:00:53;;;;;;;7.82;4.72;;;16.80;98.90;;;;;;5073436;28;20032;-83
2023/10/01 03:03:31;;;;;;;8.05;5.03;;;16.80;98.90;;;;;;5056066;28;20124;-83
2023/10/01 03:05:57;;;;;;;9.02;5.45;;;16.90;98.90;;;;;;5072824;28;20037;-83
2023/10/01 03:08:41;;;;;;;8.25;4.88;;;16.90;99.00;;;;;;5073192;28;20027;-84
2023/10/01 03:11:08;;;;;;;10.40;5.30;;;16.90;98.90;;;;;;5064631;28;20012;-83
2023/10/01 03:13:36;;;;;;;7.80;5.25;;;16.90;98.90;;;;;;5064557;28;20021;-83
2023/10/01 03:18:48;;;;;;;7.22;4.97;;;16.90;98.90;;;;;;5097932;28;20032;-81
2023/10/01 03:21:36;;;;;;;7.65;4.88;;;16.90;98.80;;;;;;5097695;28;20096;-83
2023/10/01 03:24:04;;;;;;;7.93;4.68;;;16.80;98.80;;;;;;5073921;28;20078;-83
2023/10/01 03:26:33;;;;;;;7.88;4.85;;;16.80;98.90;;;;;;5056308;28;20071;-83
2023/10/01 03:31:46;;;;;;;8.48;4.82;;;16.90;98.90;;;;;;5043137;28;20086;-83
2023/10/01 03:34:28;;;;;;;7.63;4.45;;;16.80;98.80;;;;;;5040407;28;20032;-83
2023/10/01 03:37:00;;;;;;;7.30;4.68;;;16.80;98.80;;;;;;5043499;28;20046;-83
2023/10/01 03:39:35;;;;;;;5.97;4.15;;;16.80;98.80;;;;;;5056255;28;20120;-83
2023/10/01 03:42:14;;;;;;;8.57;5.03;;;16.80;98.70;;;;;;5061390;28;20025;-83
2023/10/01 03:47:29;;;;;;;6.97;4.68;;;16.90;98.80;;;;;;5060604;28;20051;-83
2023/10/01 03:49:57;;;;;;;7.97;4.40;;;16.90;98.70;;;;;;5055823;28;20120;-83
2023/10/01 03:52:29;;;;;;;6.95;4.28;;;16.80;98.70;;;;;;5073337;28;20020;-84
2023/10/01 03:57:54;;;;;;;7.10;5.18;;;16.80;98.70;;;;;;5071811;28;20404;-84
2023/10/01 04:03:03;;;;;;;8.13;4.78;;;16.80;98.70;;;;;;5042562;28;20562;-84
2023/10/01 04:05:31;;;;;;;8.05;4.40;;;16.80;98.70;;;;;;5035046;28;20029;-83
2023/10/01 04:08:10;;;;;;;9.18;4.85;;;16.80;98.70;;;;;;5045195;28;20407;-84
2023/10/01 04:10:38;;;;;;;6.32;3.65;;;16.80;98.70;;;;;;5075996;28;20024;-83
2023/10/01 04:13:16;;;;;;;8.63;4.28;;;16.80;98.70;;;;;;5059345;28;20039;-84
2023/10/01 04:15:47;;;;;;;8.68;4.57;;;16.80;98.70;;;;;;5075902;28;20032;-83
2023/10/01 04:21:24;;;;;;;9.55;4.78;;;16.80;98.70;;;;;;5076882;28;20028;-83
2023/10/01 04:23:48;;;;;;;6.30;4.18;;;16.90;98.70;;;;;;5076416;28;20024;-83
2023/10/01 04:26:17;;;;;;;7.13;4.20;;;16.80;98.60;;;;;;5059820;28;20036;-84
2023/10/01 04:28:54;;;;;;;8.10;4.68;;;16.90;98.60;;;;;;5075077;28;20084;-83
2023/10/01 04:31:42;;;;;;;7.78;4.43;;;16.90;98.60;;;;;;5069763;28;20465;-83
2023/10/01 04:34:12;;;;;;;8.48;4.50;;;16.90;98.60;;;;;;5064262;28;20116;-83
2023/10/01 04:36:43;;;;;;;8.57;4.65;;;16.90;98.60;;;;;;5056241;28;20047;-83
2023/10/01 04:39:09;;;;;;;7.63;4.40;;;16.90;98.60;;;;;;5055476;28;20060;-83
2023/10/01 04:41:35;;;;;;;7.93;4.65;;;16.90;98.60;;;;;;5055251;28;20029;-83
2023/10/01 04:44:07;;;;;;;8.23;4.95;;;17.00;98.60;;;;;;5068264;28;20012;-83
2023/10/01 04:46:37;;;;;;;7.50;4.63;;;17.00;98.70;;;;;;5059627;28;20384;-83
2023/10/01 04:49:08;;;;;;;7.63;4.70;;;16.90;98.70;;;;;;5075430;28;20093;-83
2023/10/01 04:51:47;;;;;;;8.27;4.90;;;16.90;98.70;;;;;;5064717;28;20033;-83
2023/10/01 04:54:21;;;;;;;7.07;4.88;;;17.00;98.70;;;;;;5075724;28;20121;-83
2023/10/01 04:56:50;;;;;;;8.95;5.00;;;16.90;98.70;;;;;;5073944;28;20457;-83
2023/10/01 04:59:17;;;;;;;7.60;4.38;;;17.00;98.70;;;;;;5075803;28;20033;-83
2023/10/01 05:01:42;;;;;;;8.77;4.90;;;16.90;98.70;;;;;;5094800;28;20005;-84
2023/10/01 05:04:17;;;;;;;9.55;5.07;;;17.00;98.70;;;;;;5083108;28;20017;-83
2023/10/01 05:06:43;;;;;;;7.45;5.00;;;17.00;98.70;;;;;;5092147;28;20052;-82
2023/10/01 05:09:14;;;;;;;10.32;4.97;;;17.00;98.70;;;;;;5070496;28;20052;-83
2023/10/01 05:11:40;;;;;;;9.68;5.05;;;17.00;98.70;;;;;;5055284;28;20384;-83
2023/10/01 05:14:05;;;;;;;9.95;5.28;;;17.00;98.70;;;;;;5039161;28;20021;-83
2023/10/01 05:16:38;;;;;;;10.07;5.43;;;17.00;98.80;;;;;;5038222;28;20029;-83
2023/10/01 05:19:10;;;;;;;10.45;5.43;;;17.00;98.80;;;;;;5054597;28;20025;-83
2023/10/01 05:21:48;;;;;;;9.45;4.70;;;17.00;98.80;;;;;;5054296;28;20032;-83
2023/10/01 05:24:36;;;;;;;8.10;4.97;;;17.00;98.90;;;;;;5057207;28;20546;-83
2023/10/01 05:27:08;;;;;;;9.00;4.82;;;17.00;98.90;;;;;;5058889;28;20059;-83
2023/10/01 05:29:34;;;;;;;8.25;5.10;;;17.00;98.90;;;;;;5083476;28;20020;-83
2023/10/01 05:32:01;;;;;;;7.72;4.90;;;17.00;98.90;;;;;;5061796;28;20472;-83
2023/10/01 05:34:28;;;;;;;9.77;5.50;;;17.00;98.90;;;;;;5060936;28;20032;-84
2023/10/01 05:37:08;;;;;;;7.80;4.68;;;17.00;98.90;;;;;;5078088;28;20032;-84
2023/10/01 05:39:55;;;;;;;8.80;4.82;;;17.00;98.90;;;;;;5057589;28;20029;-83
2023/10/01 05:42:31;;;;;;;8.73;5.07;;;17.00;98.90;;;;;;5060277;28;20029;-83
2023/10/01 05:44:59;;;;;;;8.50;4.63;;;17.00;99.00;;;;;;5058866;28;20028;-84
2023/10/01 05:47:41;;;;;;;8.68;5.35;;;17.00;98.90;;;;;;5044564;28;20029;-82
2023/10/01 05:50:08;;;;;;;8.57;5.15;;;17.00;99.00;;;;;;5095068;28;20472;-83
2023/10/01 05:52:40;;;;;;;8.35;4.93;;;17.00;99.00;;;;;;5077272;28;20028;-83
2023/10/01 05:55:08;;;;;;;8.63;5.55;;;17.00;99.00;;;;;;5061513;28;20115;-83
2023/10/01 05:57:34;;;;;;;8.73;5.30;;;17.10;99.00;;;;;;5076812;28;20059;-83
2023/10/01 06:00:00;;;;;;;8.35;5.22;;;17.10;99.00;;;;;;5058353;28;20036;-83
2023/10/01 06:02:41;;;;;;;11.07;5.68;;;17.10;99.10;;;;;;5071397;28;20028;-83
2023/10/01 06:05:25;;;;;;;8.63;5.30;;;17.10;99.00;;;;;;5077062;28;20028;-83
2023/10/01 06:07:52;;;;;;;12.38;5.13;;;17.10;99.00;;;;;;5095061;28;20472;-83
2023/10/01 06:10:19;;;;;;;8.77;5.20;;;17.10;99.00;;;;;;5073171;28;20016;-84
2023/10/01 06:12:50;;;;;;;9.35;5.60;;;17.10;99.00;;;;;;5040582;28;20048;-84
2023/10/01 06:15:20;;;;;;;8.45;5.03;;;17.10;99.00;;;;;;5057504;28;20384;-83
2023/10/01 06:17:46;;;;;;;10.00;4.80;;;17.20;99.10;;;;;;5060853;28;20031;-83
2023/10/01 06:20:23;;;;;;;9.30;5.22;;;17.20;99.00;;;;;;5095119;28;20051;-83
2023/10/01 06:22:49;;;;;;;9.07;4.93;;;17.10;99.00;;;;;;5046423;28;20345;-83
2023/10/01 06:25:15;;;;;;;8.98;4.85;;;17.20;99.10;;;;;;5058915;28;20029;-83
2023/10/01 06:27:41;;;;;;;10.52;5.05;;;17.20;99.10;;;;;;5023357;28;20052;-83
2023/10/01 06:30:08;;;;;;;12.05;5.63;;;17.20;99.10;;;;;;5068344;28;20028;-83
2023/10/01 06:32:34;;;;;;;8.32;5.03;;;17.20;99.10;;;;;;5072848;28;20043;-82
2023/10/01 06:35:02;;;;;;;9.10;5.38;;;17.30;99.20;;;;;;5040509;28;20028;-84
2023/10/01 06:37:50;;;;;;;11.50;5.75;;;17.20;99.20;;;;;;5062886;28;20464;-85
2023/10/01 06:40:30;;;;;;;8.15;4.75;;;17.20;99.10;;;;;;5030171;28;20463;-84
2023/10/01 06:43:00;;;;;;;9.13;5.22;;;17.20;99.10;;;;;;5074772;28;20028;-85
2023/10/01 06:45:39;;;;;;;8.35;4.72;;;17.20;99.20;;;;;;5065805;28;20072;-85
2023/10/01 06:48:14;;;;;;;9.45;5.47;;;17.30;99.20;;;;;;5080988;28;20034;-85
2023/10/01 06:50:43;;;;;;;9.30;5.30;;;17.20;99.10;;;;;;5090459;28;20023;-84
2023/10/01 06:53:10;;;;;;;8.75;5.47;;;17.30;99.10;;;;;;5101457;28;20008;-84
2023/10/01 06:55:36;;;;;;;9.00;5.65;;;17.30;99.20;;;;;;5068072;28;20024;-84
2023/10/01 06:58:06;;;;;;;9.77;5.53;;;17.30;99.20;;;;;;5060834;28;20026;-83
2023/10/01 07:00:35;;;;;;;9.57;5.25;;;17.40;99.20;;;;;;5095032;28;20369;-83
2023/10/01 07:03:22;;;;;;;10.90;5.57;;;17.40;99.30;;;;;;5076254;28;20046;-83
2023/10/01 07:05:55;;;;;;;8.18;4.88;;;17.40;99.30;;;;;;5066354;28;20396;-84
2023/10/01 07:08:37;;;;;;;8.63;5.40;;;17.40;99.20;;;;;;5040482;28;20113;-84
2023/10/01 07:11:11;;;;;;;10.27;5.32;;;17.40;99.30;;;;;;5071347;28;20468;-83
2023/10/01 07:13:38;;;;;;;9.02;5.50;;;17.50;99.40;;;;;;5056462;28;20071;-83
2023/10/01 07:16:07;;;;;;;11.65;5.68;;;17.50;99.30;;;;;;5059292;28;20494;-84
2023/10/01 07:18:37;;;;;;;9.90;5.68;;;17.50;99.30;;;;;;5075758;28;20032;-83
2023/10/01 07:21:09;;;;;;;10.10;6.05;;;17.60;99.30;;;;;;5063863;28;20036;-82
2023/10/01 07:23:35;;;;;;;10.00;5.95;;;17.60;99.20;;;;;;5056671;28;20028;-83
2023/10/01 07:26:01;;;;;;;10.52;5.68;;;17.60;99.20;;;;;;5053985;28;20566;-83
2023/10/01 07:28:26;;;;;;;8.95;5.32;;;17.60;99.20;;;;;;5055601;28;20068;-84
2023/10/01 07:30:56;;;;;;;9.50;5.60;;;17.70;99.20;;;;;;5056001;28;20427;-83
2023/10/01 07:33:22;;;;;;;10.43;5.80;;;17.70;99.00;;;;;;5039635;28;20028;-83
2023/10/01 07:36:23;;;;;;;10.23;5.93;;;17.70;99.00;;;;;;5079390;28;20418;-83
2023/10/01 07:38:48;;;;;;;9.15;5.55;;;17.70;99.00;;;;;;5070034;28;20025;-83
2023/10/01 07:41:18;;;;;;;10.45;5.80;;;17.70;98.90;;;;;;5055959;28;20103;-83
2023/10/01 07:43:44;;;;;;;10.57;5.95;;;17.80;99.00;;;;;;5077494;28;20030;-83
2023/10/01 07:46:09;;;;;;;11.45;6.05;;;17.80;98.90;;;;;;5042909;28;20136;-83
2023/10/01 07:48:40;;;;;;;10.35;5.80;;;17.80;98.90;;;;;;5064858;28;20456;-83
2023/10/01 07:51:23;;;;;;;10.82;6.38;;;17.80;98.90;;;;;;5085664;28;20052;-83
2023/10/01 07:53:52;;;;;;;10.63;5.93;;;17.90;98.90;;;;;;5058878;28;20060;-83
2023/10/01 07:56:21;;;;;;;10.05;5.85;;;17.90;98.90;;;;;;5059327;28;20039;-84
2023/10/01 07:59:17;;;;;;;9.60;5.72;;;18.00;98.90;;;;;;5077231;28;20021;-83
2023/10/01 08:01:43;;;;;;;10.13;5.90;;;18.00;98.90;;;;;;5058156;28;20028;-83
2023/10/01 08:07:03;;;;;;;10.95;5.72;;;18.10;98.90;;;;;;5070444;28;20091;-83
2023/10/01 08:09:31;;;;;;;11.45;5.97;;;18.10;98.80;;;;;;5063554;28;20024;-83
2023/10/01 08:12:05;;;;;;;11.65;6.05;;;18.10;98.80;;;;;;5059709;28;20025;-83
2023/10/01 08:14:34;;;;;;;9.10;6.18;;;18.20;98.80;;;;;;5069438;28;20107;-83
2023/10/01 08:17:01;;;;;;;11.90;6.05;;;18.20;98.80;;;;;;5061755;28;20025;-83
2023/10/01 08:19:45;;;;;;;9.95;5.90;;;18.20;98.80;;;;;;5068314;28;20032;-83
2023/10/01 08:22:15;;;;;;;10.43;6.10;;;18.30;98.80;;;;;;5072171;28;20111;-83
2023/10/01 08:24:45;;;;;;;9.93;5.63;;;18.30;98.70;;;;;;5055678;28;20032;-83
2023/10/01 08:27:29;;;;;;;12.15;6.70;;;18.30;98.70;;;;;;5055355;28;20057;-83
2023/10/01 08:32:41;;;;;;;10.10;6.30;;;18.50;98.80;;;;;;5064973;28;20113;-83
2023/10/01 08:35:07;;;;;;;10.63;6.30;;;18.50;98.80;;;;;;5082367;28;20005;-82
2023/10/01 08:37:37;;;;;;;11.77;6.78;;;18.50;98.80;;;;;;5063939;28;20012;-83
2023/10/01 08:40:27;;;;;;;12.87;6.20;;;18.60;98.80;;;;;;5076219;28;20048;-83
2023/10/01 08:42:58;;;;;;;12.50;6.93;;;18.60;98.80;;;;;;5063102;28;20029;-83
2023/10/01 08:45:37;;;;;;;12.55;6.90;;;18.70;98.80;;;;;;5075148;28;20044;-83
2023/10/01 08:48:05;;;;;;;13.40;7.35;;;18.70;98.90;;;;;;5057291;28;20021;-84
2023/10/01 08:50:36;;;;;;;10.73;6.45;;;18.80;98.90;;;;;;5058316;28;20358;-83
2023/10/01 08:53:09;;;;;;;12.32;6.47;;;18.80;98.90;;;;;;5060058;28;20381;-84
2023/10/01 08:55:39;;;;;;;11.88;6.57;;;18.90;99.00;;;;;;5057495;28;20025;-85
2023/10/01 08:58:14;;;;;;;11.90;6.40;;;18.90;99.00;;;;;;5075301;28;20104;-83
2023/10/01 09:01:10;;;;;;;10.90;6.68;;;18.90;99.00;;;;;;5062386;28;20021;-84
2023/10/01 09:03:36;;;;;;;12.63;6.85;;;19.00;99.00;;;;;;5056128;28;20032;-84
2023/10/01 09:06:08;;;;;;;11.13;6.80;;;19.10;99.00;;;;;;5074376;28;20028;-84
2023/10/01 09:08:42;;;;;;;9.98;6.40;;;19.10;99.00;;;;;;5063230;28;20044;-84
2023/10/01 09:11:13;;;;;;;12.18;6.72;;;19.20;99.10;;;;;;5056397;28;20493;-84
2023/10/01 09:16:42;;;;;;;13.77;8.02;;;19.20;99.00;;;;;;5075575;28;20400;-84
2023/10/01 09:19:30;;;;;;;12.48;7.50;;;19.30;99.00;;;;;;5074785;28;20384;-84
2023/10/01 09:22:15;;;;;;;11.82;7.35;;;19.40;98.90;;;;;;5075348;28;20020;-84
2023/10/01 09:24:43;;;;;;;12.80;7.10;;;19.40;98.90;;;;;;5074514;28;20020;-83
2023/10/01 09:27:18;;;;;;;12.10;6.45;;;19.40;98.90;;;;;;5070500;28;20075;-84
2023/10/01 09:29:48;;;;;;;12.05;6.80;;;19.40;98.80;;;;;;5055610;28;20052;-85
2023/10/01 09:32:14;;;;;;;12.43;6.90;;;19.50;98.80;;;;;;5055344;28;20458;-84
2023/10/01 09:34:53;;;;;;;10.77;6.22;;;19.50;98.90;;;;;;5054369;28;20460;-84
2023/10/01 09:37:42;;;;;;;10.57;6.30;;;19.60;98.90;;;;;;5059789;28;20035;-84
2023/10/01 09:42:57;;;;;;;10.98;6.57;;;19.70;98.80;;;;;;5055502;28;20047;-83
2023/10/01 09:45:46;;;;;;;9.65;6.32;;;19.80;98.80;;;;;;5054011;28;20501;-84
2023/10/01 09:48:28;;;;;;;10.20;6.53;;;19.80;98.80;;;;;;5037608;28;20024;-83
2023/10/01 09:51:18;;;;;;;11.93;6.50;;;19.80;98.80;;;;;;5053934;28;20079;-84
2023/10/01 09:53:47;;;;;;;10.10;6.15;;;19.90;98.80;;;;;;5056384;28;20033;-83
2023/10/01 09:56:15;;;;;;;10.48;6.38;;;19.90;98.90;;;;;;5072077;28;20040;-84
2023/10/01 09:58:48;;;;;;;11.77;6.30;;;20.00;98.80;;;;;;5073996;28;20472;-83
2023/10/01 10:01:17;;;;;;;9.70;6.38;;;20.00;98.80;;;;;;5057210;28;20369;-83
2023/10/01 10:03:44;;;;;;;11.60;6.78;;;20.10;98.80;;;;;;5059919;28;20025;-83
2023/10/01 10:06:11;;;;;;;12.32;6.63;;;20.20;98.80;;;;;;5052398;28;20033;-83
2023/10/01 10:08:41;;;;;;;11.73;6.80;;;20.20;98.80;;;;;;5073629;28;20032;-83
2023/10/01 10:11:24;;;;;;;11.00;6.28;;;20.30;98.80;;;;;;5073265;28;20020;-85
2023/10/01 10:13:57;;;;;;;11.63;6.00;;;20.30;98.80;;;;;;5072930;28;20116;-83
2023/10/01 10:16:32;;;;;;;11.23;5.82;;;20.40;98.80;;;;;;5057844;28;20025;-83
2023/10/01 10:19:12;;;;;;;11.27;6.72;;;20.50;98.70;;;;;;5038630;28;20374;-83
2023/10/01 10:24:30;;;;;;;11.38;6.57;;;20.60;98.70;;;;;;5063549;28;20452;-84
2023/10/01 10:26:58;;;;;;;8.93;5.75;;;20.60;98.70;;;;;;5069776;28;20041;-83
2023/10/01 10:29:24;;;;;;;11.43;6.40;;;20.70;98.70;;;;;;5060414;28;20032;-84
2023/10/01 10:32:09;;;;;;;10.40;5.93;;;20.70;98.80;;;;;;5078162;28;20033;-83
2023/10/01 10:34:47;;;;;;;10.88;6.60;;;20.80;98.80;;;;;;5046894;28;20085;-83
2023/10/01 10:37:37;;;;;;;9.82;5.63;;;20.80;98.80;;;;;;5062720;28;20089;-83
2023/10/01 10:43:04;;;;;;;11.52;6.13;;;21.00;98.80;;;;;;5074521;28;20028;-83
2023/10/01 10:45:43;;;;;;;12.48;6.22;;;21.00;98.70;;;;;;5054775;28;20044;-83
2023/10/01 10:48:10;;;;;;;10.32;6.30;;;21.10;98.60;;;;;;5069104;28;20029;-83
2023/10/01 10:50:53;;;;;;;14.05;7.55;;;21.20;98.50;;;;;;5028831;28;20036;-83
2023/10/01 10:53:29;;;;;;;11.35;6.47;;;21.20;98.40;;;;;;5072492;28;20365;-83
2023/10/01 10:56:02;;;;;;;10.90;6.20;;;21.30;98.40;;;;;;5073736;28;20108;-83
2023/10/01 10:58:39;;;;;;;11.05;6.20;;;21.30;98.40;;;;;;5072278;28;20024;-84
2023/10/01 11:01:15;;;;;;;11.73;6.25;;;21.40;98.50;;;;;;5073781;28;20103;-83
2023/10/01 11:03:54;;;;;;;11.75;6.60;;;21.50;98.50;;;;;;5057272;28;20025;-84
2023/10/01 11:06:39;;;;;;;12.18;6.70;;;21.50;98.40;;;;;;5063454;28;20534;-84
2023/10/01 11:09:22;;;;;;;11.52;6.60;;;21.60;98.40;;;;;;5072550;28;20031;-84
2023/10/01 11:12:05;;;;;;;10.93;7.07;;;21.60;98.40;;;;;;5072613;28;20468;-84
2023/10/01 11:14:33;;;;;;;10.23;5.90;;;21.70;98.30;;;;;;5056426;28;20029;-84
2023/10/01 11:16:59;;;;;;;14.18;6.63;;;21.70;98.20;;;;;;5053085;28;20032;-83
2023/10/01 11:19:35;;;;;;;10.73;6.68;;;21.70;98.10;;;;;;5055979;28;20534;-84
2023/10/01 11:22:02;;;;;;;10.75;6.72;;;21.80;98.10;;;;;;5052354;28;20025;-84
2023/10/01 11:24:41;;;;;;;11.45;6.88;;;21.80;98.00;;;;;;5059627;28;20047;-83
2023/10/01 11:28:05;;;;;;;11.13;6.93;;;21.90;98.00;;;;;;5066170;28;20076;-83
2023/10/01 11:30:12;;;;;;;9.95;6.40;;;21.90;98.00;;;;;;5064120;28;20052;-84
2023/10/01 11:32:59;;;;;;;9.98;6.00;;;22.00;97.90;;;;;;5061376;28;20465;-84
2023/10/01 11:35:33;;;;;;;8.80;6.00;;;22.00;97.80;;;;;;5075861;28;20028;-83
2023/10/01 11:38:00;;;;;;;9.50;5.90;;;22.00;97.80;;;;;;5063720;28;20039;-83
2023/10/01 11:43:23;;;;;;;11.85;6.45;;;22.20;97.80;;;;;;5062625;28;20032;-84
2023/10/01 11:46:18;;;;;;;10.00;5.80;;;22.10;97.70;;;;;;5041605;28;20036;-83
2023/10/01 11:48:56;;;;;;;10.02;6.18;;;22.20;97.80;;;;;;5088487;28;20013;-84
2023/10/01 11:51:42;;;;;;;10.38;6.00;;;22.20;97.80;;;;;;5055480;28;20028;-83
2023/10/01 11:54:12;;;;;;;10.98;6.40;;;22.20;97.70;;;;;;5056268;28;20040;-83
2023/10/01 11:56:42;;;;;;;8.60;5.60;;;22.20;97.70;;;;;;5075176;28;20028;-83
2023/10/01 11:59:17;;;;;;;8.85;5.43;;;22.20;97.70;;;;;;5074888;28;20040;-85
2023/10/01 12:01:48;;;;;;;10.10;5.05;;;22.30;97.70;;;;;;5072685;28;20081;-83
2023/10/01 12:07:15;;;;;;;9.00;5.80;;;22.30;97.50;;;;;;5075892;28;20232;-85
2023/10/01 12:09:48;;;;;;;10.52;6.22;;;22.40;97.50;;;;;;5075463;28;20066;-85
2023/10/01 12:12:39;;;;;;;10.05;5.78;;;22.40;97.40;;;;;;5093757;28;20028;-84
2023/10/01 12:17:54;;;;;;;9.65;6.03;;;22.40;97.20;;;;;;5059130;28;20036;-84
2023/10/01 12:20:28;;;;;;;9.10;5.65;;;22.40;97.20;;;;;;5074943;28;20043;-84
2023/10/01 12:23:13;;;;;;;8.93;5.55;;;22.40;97.30;;;;;;5102442;28;20023;-84
2023/10/01 12:25:50;;;;;;;10.38;5.80;;;22.40;97.30;;;;;;5082657;28;20028;-84
2023/10/01 12:28:24;;;;;;;9.25;5.55;;;22.50;97.30;;;;;;5080082;28;20052;-83
2023/10/01 12:33:58;;;;;;;8.13;5.60;;;22.60;97.40;;;;;;5106609;28;20039;-84
2023/10/01 12:36:44;;;;;;;9.75;5.47;;;22.60;97.40;;;;;;5095264;28;20046;-84
2023/10/01 12:44:36;;;;;;;8.73;5.50;;;22.70;97.40;;;;;;5096699;28;20058;-84
2023/10/01 12:47:06;;;;;;;9.13;5.22;;;22.70;97.40;;;;;;5061546;28;20476;-84
2023/10/01 12:49:33;;;;;;;9.55;5.85;;;22.70;97.40;;;;;;5058550;28;20039;-84
2023/10/01 12:52:14;;;;;;;8.27;5.45;;;22.70;97.40;;;;;;5076644;28;20020;-85
2023/10/01 12:54:39;;;;;;;;;;;22.80;97.40;;;;;;5070649;28;20078;-84
2023/10/01 12:57:09;;;;;;;8.48;5.38;;;22.80;97.40;;;;;;5061381;28;19912;-84
2023/10/01 12:59:39;;;;;;;8.50;5.47;;;22.80;97.40;;;;;;5058071;28;20027;-84
2023/10/01 13:02:21;;;;;;;8.98;5.32;;;22.80;97.40;;;;;;5076228;28;20024;-84
2023/10/01 13:04:50;;;;;;;8.68;5.10;;;22.90;97.50;;;;;;5076065;28;20472;-85
2023/10/01 13:07:27;;;;;;;9.57;5.60;;;22.90;97.40;;;;;;5057973;28;20463;-83
2023/10/01 13:09:54;;;;;;;8.95;5.07;;;22.90;97.30;;;;;;5064747;28;20020;-84
2023/10/01 13:12:25;;;;;;;8.13;4.72;;;23.00;97.20;;;;;;5060520;28;20032;-84
2023/10/01 13:17:43;;;;;;;8.95;5.18;;;23.10;97.10;;;;;;5046602;28;20043;-84
2023/10/01 13:20:19;;;;;;;8.65;4.82;;;23.10;97.00;;;;;;5057681;28;20425;-84
2023/10/01 13:22:48;;;;;;;9.27;5.18;;;23.20;96.90;;;;;;5043998;28;20384;-84
2023/10/01 13:25:19;;;;;;;8.93;5.30;;;23.20;96.80;;;;;;5060681;28;20131;-84
2023/10/01 13:27:49;;;;;;;8.93;5.15;;;23.30;96.70;;;;;;5068465;28;20060;-84
2023/10/01 13:30:23;;;;;;;10.07;5.30;;;23.20;96.70;;;;;;5061552;28;20028;-84
2023/10/01 13:35:36;;;;;;;7.57;5.00;;;23.30;96.70;;;;;;5066210;28;20047;-84
2023/10/01 13:38:56;;;;;;;8.57;5.40;;;23.30;96.60;;;;;;5069797;28;20435;-84
2023/10/01 14:11:06;;;;;;;9.65;6.32;;;23.50;96.30;;;;;;5060343;28;20071;-83
2023/10/01 14:13:35;;;;;;;8.88;6.07;;;23.40;96.20;;;;;;5083961;28;20073;-84
2023/10/01 14:18:57;;;;;;;9.52;5.70;;;23.50;96.10;;;;;;5078262;28;20039;-84
2023/10/01 14:21:25;;;;;;;10.55;6.70;;;23.50;96.00;;;;;;5092634;28;20051;-84
2023/10/01 14:26:43;;;;;;;9.13;6.10;;;23.50;96.10;;;;;;5104187;28;20097;-84
2023/10/01 14:29:09;;;;;;;10.82;6.95;;;23.50;96.00;;;;;;5100283;28;20023;-84
2023/10/01 14:31:41;;;;;;;13.05;6.45;;;23.50;96.00;;;;;;5116086;28;20035;-84
2023/10/01 14:34:08;;;;;;;10.30;6.15;;;23.50;95.80;;;;;;5090084;28;20060;-84
2023/10/01 14:36:40;;;;;;;10.68;6.88;;;23.50;95.80;;;;;;5057076;28;20086;-85
2023/10/01 14:39:08;;;;;;;10.70;6.75;;;23.50;95.90;;;;;;5040655;28;20059;-84
2023/10/01 14:41:41;;;;;;;10.95;6.65;;;23.50;95.60;;;;;;5077444;28;20047;-84
2023/10/01 14:44:07;;;;;;;10.35;7.05;;;23.50;95.70;;;;;;5058472;28;20032;-84